Time;durP1;ratioP1;P1;durP2;ratioP2;P2;SDS_P1;SDS_P2;PMS_P1;PMS_P2;Temp;Humidity;BMP_temperature;BMP_pressure;BME280_temperature;BME280_humidity;BME280_pressure;Samples;Min_cycle;Max_cycle;Signal;HPM_P1;HPM_P2
2023/09/24 00:02:19;;;;;;;6.43;4.45;;;;;;;6.07;100.00;101055.28;4951685;28;20059;-66
2023/09/24 00:04:47;;;;;;;8.10;4.30;;;;;;;6.06;100.00;101053.63;4952863;28;20535;-64
2023/09/24 00:07:15;;;;;;;7.65;4.43;;;;;;;5.96;100.00;101050.84;4946684;28;20068;-65
2023/09/24 00:09:43;;;;;;;9.48;4.38;;;;;;;5.83;100.00;101036.78;4953021;28;20054;-65
2023/09/24 00:12:09;;;;;;;10.32;4.57;;;;;;;5.75;100.00;101035.59;4952260;28;20098;-65
2023/09/24 00:14:36;;;;;;;11.13;4.35;;;;;;;5.62;100.00;101024.22;4952821;28;20051;-65
2023/09/24 00:17:03;;;;;;;7.28;4.47;;;;;;;5.58;100.00;101022.75;4951124;28;20059;-65
2023/09/24 00:19:30;;;;;;;7.72;4.28;;;;;;;5.25;100.00;100989.00;4939510;28;20054;-65
2023/09/24 00:21:57;;;;;;;12.35;4.60;;;;;;;4.88;100.00;100928.03;4932906;29;20052;-65
2023/09/24 00:24:24;;;;;;;8.48;4.55;;;;;;;4.86;100.00;100926.44;4932002;29;20048;-64
2023/09/24 00:26:50;;;;;;;12.52;4.30;;;;;;;4.87;100.00;100930.78;4932789;28;20043;-64
2023/09/24 00:29:17;;;;;;;10.05;4.63;;;;;;;4.84;100.00;100926.56;4932490;28;20051;-66
2023/09/24 00:31:43;;;;;;;7.60;4.10;;;;;;;4.84;100.00;100934.53;4932455;29;20095;-64
2023/09/24 00:34:10;;;;;;;7.32;4.18;;;;;;;4.78;100.00;100930.53;4932472;29;20123;-64
2023/09/24 00:36:37;;;;;;;12.70;5.15;;;;;;;4.77;100.00;100920.03;4932080;29;20103;-66
2023/09/24 00:39:04;;;;;;;7.38;4.25;;;;;;;4.69;100.00;100912.63;4933006;29;20059;-65
2023/09/24 00:41:31;;;;;;;7.65;4.45;;;;;;;4.57;100.00;100898.47;4932240;29;20043;-65
2023/09/24 00:43:58;;;;;;;9.13;4.88;;;;;;;4.62;100.00;100907.91;4933117;29;20047;-65
2023/09/24 00:46:25;;;;;;;7.70;5.28;;;;;;;4.51;100.00;100898.94;4932434;29;20048;-64
2023/09/24 00:48:55;;;;;;;10.23;4.28;;;;;;;4.29;100.00;100872.28;4932973;29;20054;-65
2023/09/24 00:51:26;;;;;;;10.18;4.35;;;;;;;4.23;100.00;100864.78;4930357;29;20130;-65
2023/09/24 00:53:54;;;;;;;8.43;4.25;;;;;;;3.66;100.00;100781.44;4931185;28;20050;-65
2023/09/24 00:56:22;;;;;;;8.45;4.57;;;;;;;3.43;100.00;100731.91;4933083;29;20102;-64
2023/09/24 00:58:53;;;;;;;8.27;3.92;;;;;;;2.97;100.00;100661.91;4932345;29;20111;-65
2023/09/24 01:01:24;;;;;;;11.40;4.03;;;;;;;2.82;100.00;100649.75;4933339;29;20055;-63
2023/09/24 01:03:51;;;;;;;;;;;;;;;2.55;100.00;100610.25;4947265;29;20115;-63
2023/09/24 01:09:51;;;;;;;10.35;3.65;;;;;;;1.95;100.00;100512.16;4948066;29;20052;-62
2023/09/24 01:12:22;;;;;;;7.30;4.10;;;;;;;2.00;100.00;100521.59;4948475;29;20047;-63
2023/09/24 01:14:49;;;;;;;7.65;4.07;;;;;;;1.64;100.00;100476.44;4948550;29;20055;-63
2023/09/24 01:17:17;;;;;;;8.38;3.95;;;;;;;1.71;100.00;100488.28;4947453;29;20075;-62
2023/09/24 01:19:44;;;;;;;9.65;4.03;;;;;;;1.68;100.00;100492.91;4961122;28;20050;-64
2023/09/24 01:22:11;;;;;;;6.63;3.85;;;;;;;1.68;100.00;100500.84;4965395;28;20079;-62
2023/09/24 01:24:37;;;;;;;11.60;4.50;;;;;;;1.30;100.00;100446.25;4965599;28;20079;-63
2023/09/24 01:27:04;;;;;;;8.95;4.00;;;;;;;1.22;100.00;100438.00;4965780;28;20048;-63
2023/09/24 01:29:31;;;;;;;7.93;4.03;;;;;;;0.45;100.00;100326.25;4966597;28;20044;-62
2023/09/24 01:31:58;;;;;;;7.80;4.25;;;;;;;-0.09;100.00;100229.66;4966393;28;20051;-66
2023/09/24 01:34:24;;;;;;;10.05;3.80;;;;;;;0.13;100.00;100262.50;4967213;28;20067;-61
2023/09/24 01:36:51;;;;;;;12.60;4.13;;;;;;;0.06;100.00;100267.34;4966956;28;20062;-64
2023/09/24 01:39:19;;;;;;;7.57;3.67;;;;;;;0.02;100.00;100253.53;4966555;28;20079;-63
2023/09/24 01:41:45;;;;;;;11.23;4.07;;;;;;;-0.22;100.00;100227.03;4965948;28;20048;-61
2023/09/24 01:44:16;;;;;;;7.55;4.32;;;;;;;-0.41;100.00;100197.56;4966032;28;20055;-62
2023/09/24 01:46:46;;;;;;;8.90;4.60;;;;;;;-0.23;100.00;100219.19;4965318;28;20055;-64
2023/09/24 01:49:12;;;;;;;6.10;3.75;;;;;;;-0.14;100.00;100226.50;4966149;28;20051;-62
2023/09/24 01:51:39;;;;;;;8.15;3.88;;;;;;;0.53;100.00;100337.13;4965401;28;20047;-62
2023/09/24 01:54:06;;;;;;;8.10;4.80;;;;;;;0.43;100.00;100329.00;4964483;28;20079;-61
2023/09/24 01:56:32;;;;;;;5.45;3.72;;;;;;;-0.20;100.00;100219.00;4963675;28;20039;-62
2023/09/24 01:58:59;;;;;;;9.88;3.70;;;;;;;-0.32;100.00;100212.78;4964815;28;20043;-61
2023/09/24 02:01:25;;;;;;;6.95;4.32;;;;;;;-0.47;100.00;100192.69;4966458;28;20043;-63
2023/09/24 02:03:57;;;;;;;7.80;4.18;;;;;;;-0.39;100.00;100211.50;4965808;28;20043;-62
2023/09/24 02:06:24;;;;;;;10.18;4.25;;;;;;;-0.85;100.00;100145.19;4968385;28;20057;-62
2023/09/24 02:08:50;;;;;;;10.40;4.18;;;;;;;-1.59;100.00;100042.09;4969283;28;20043;-61
2023/09/24 02:11:18;;;;;;;5.13;3.65;;;;;;;-1.43;100.00;100063.00;4968231;28;20047;-63
2023/09/24 02:13:44;;;;;;;10.05;4.32;;;;;;;-1.44;100.00;100064.78;4968461;28;20047;-63
2023/09/24 02:16:12;;;;;;;7.93;4.03;;;;;;;-1.53;100.00;100049.59;4968481;28;20043;-63
2023/09/24 02:18:39;;;;;;;10.25;4.88;;;;;;;-1.49;100.00;100064.22;4962542;28;20051;-63
2023/09/24 02:21:14;;;;;;;9.23;4.43;;;;;;;-1.46;100.00;100079.81;4947970;29;20043;-62
2023/09/24 02:23:43;;;;;;;8.70;4.25;;;;;;;-1.56;100.00;100056.84;4949142;29;20047;-62
2023/09/24 02:26:09;;;;;;;7.28;4.40;;;;;;;-1.49;100.00;100076.53;4947732;29;20491;-63
2023/09/24 02:28:38;;;;;;;8.32;4.20;;;;;;;-1.68;100.00;100047.94;4948166;29;20044;-61
2023/09/24 02:31:17;;;;;;;9.90;4.25;;;;;;;-1.56;100.00;100067.34;4948192;29;20103;-63
2023/09/24 02:33:44;;;;;;;6.07;4.18;;;;;;;-1.71;100.00;100045.53;4947048;29;20075;-63
2023/09/24 02:36:12;;;;;;;7.40;4.30;;;;;;;-1.80;100.00;100030.31;4948048;29;20047;-62
2023/09/24 02:38:39;;;;;;;9.68;4.38;;;;;;;-1.79;100.00;100024.09;4947891;29;20111;-63
2023/09/24 02:41:06;;;;;;;12.48;4.28;;;;;;;-1.62;100.00;100056.28;4947927;29;20138;-62
2023/09/24 02:43:32;;;;;;;8.38;4.15;;;;;;;-1.48;100.00;100073.78;4947919;29;20047;-63
2023/09/24 02:45:59;;;;;;;12.13;4.93;;;;;;;-1.34;100.00;100106.28;4947507;29;20050;-63
2023/09/24 02:48:25;;;;;;;9.23;4.78;;;;;;;-1.42;100.00;100090.97;4947940;28;20047;-62
2023/09/24 02:50:54;;;;;;;6.65;4.57;;;;;;;-1.49;100.00;100081.81;4947378;29;20052;-62
2023/09/24 02:53:20;;;;;;;10.00;4.45;;;;;;;-1.52;100.00;100074.94;4945522;29;20107;-63
2023/09/24 02:55:47;;;;;;;9.23;4.05;;;;;;;-1.40;100.00;100083.84;4946986;29;20115;-62
2023/09/24 02:58:14;;;;;;;13.63;5.07;;;;;;;-1.27;100.00;100102.28;4946001;28;20055;-63
2023/09/24 03:00:44;;;;;;;10.68;4.80;;;;;;;-0.25;100.00;100264.13;4946082;29;20044;-62
2023/09/24 03:03:15;;;;;;;11.30;5.30;;;;;;;-0.06;100.00;100294.53;4941772;29;20048;-66
2023/09/24 03:05:42;;;;;;;8.30;4.72;;;;;;;0.04;100.00;100301.72;4934046;29;20527;-67
2023/09/24 03:08:09;;;;;;;9.15;4.55;;;;;;;0.84;100.00;100433.56;4934037;29;20044;-67
2023/09/24 03:10:37;;;;;;;13.68;3.85;;;;;;;0.94;100.00;100454.91;4933426;29;20048;-68
2023/09/24 03:13:06;;;;;;;7.93;3.97;;;;;;;1.40;100.00;100516.03;4933683;29;20494;-67
2023/09/24 03:15:34;;;;;;;8.07;4.05;;;;;;;2.05;100.00;100610.25;4933782;29;20102;-67
2023/09/24 03:18:01;;;;;;;7.25;4.63;;;;;;;2.48;100.00;100683.13;4932946;28;20503;-67
2023/09/24 03:20:29;;;;;;;8.60;4.35;;;;;;;2.56;100.00;100694.88;4953078;28;20492;-67
2023/09/24 03:23:02;;;;;;;16.95;3.78;;;;;;;2.51;100.00;100693.50;4952562;28;20050;-66
2023/09/24 03:25:29;;;;;;;9.63;4.43;;;;;;;2.58;100.00;100692.09;4953040;28;20464;-67
2023/09/24 03:27:57;;;;;;;8.52;3.90;;;;;;;2.60;100.00;100703.47;4953550;28;20043;-68
2023/09/24 03:30:27;;;;;;;9.65;4.13;;;;;;;2.60;100.00;100703.47;4952822;28;20051;-67
2023/09/24 03:32:55;;;;;;;10.02;3.50;;;;;;;2.62;100.00;100704.19;4953582;28;20134;-67
2023/09/24 03:35:24;;;;;;;7.70;3.75;;;;;;;2.74;100.00;100724.50;4952466;28;20151;-68
2023/09/24 03:37:52;;;;;;;8.80;3.58;;;;;;;2.96;100.00;100744.16;4953357;28;20043;-67
2023/09/24 03:40:29;;;;;;;6.32;3.65;;;;;;;3.62;100.00;100852.44;4952174;28;20058;-67
2023/09/24 03:42:56;;;;;;;8.85;3.58;;;;;;;3.72;100.00;100865.88;4951905;28;20051;-66
2023/09/24 03:45:24;;;;;;;7.15;3.63;;;;;;;3.73;100.00;100866.75;4952653;28;20050;-67
2023/09/24 03:47:52;;;;;;;6.05;3.65;;;;;;;3.77;100.00;100868.22;4952109;28;20040;-68
2023/09/24 03:50:19;;;;;;;8.40;3.90;;;;;;;3.72;100.00;100872.97;4951310;28;20146;-67
2023/09/24 03:52:51;;;;;;;6.05;3.45;;;;;;;3.71;100.00;100866.00;4953116;28;20126;-67
2023/09/24 03:55:18;;;;;;;;;;;;;;;3.43;100.00;100833.53;4952094;28;20058;-67
2023/09/24 03:57:47;;;;;;;6.75;3.40;;;;;;;3.49;100.00;100835.72;4964889;28;19923;-63
2023/09/24 04:00:18;;;;;;;6.88;3.55;;;;;;;3.57;100.00;100846.63;4963879;28;20054;-63
2023/09/24 04:02:47;;;;;;;6.85;3.20;;;;;;;3.62;100.00;100856.91;4963576;28;20051;-63
2023/09/24 04:05:18;;;;;;;9.10;3.53;;;;;;;3.56;100.00;100850.25;4964405;28;20043;-65
2023/09/24 04:07:46;;;;;;;8.75;3.25;;;;;;;3.57;100.00;100851.09;4963581;28;20071;-62
2023/09/24 04:10:15;;;;;;;5.65;3.42;;;;;;;3.64;100.00;100862.94;4951539;28;20051;-67
2023/09/24 04:12:43;;;;;;;10.82;3.92;;;;;;;3.21;100.00;100804.22;4951583;28;20043;-68
2023/09/24 04:15:10;;;;;;;6.68;3.45;;;;;;;2.24;100.00;100652.16;4950278;28;20531;-68
2023/09/24 04:17:37;;;;;;;7.80;3.65;;;;;;;2.25;100.00;100645.06;4951457;28;20055;-67
2023/09/24 04:20:06;;;;;;;6.70;3.50;;;;;;;2.07;100.00;100616.28;4932694;28;20058;-68
2023/09/24 04:22:35;;;;;;;12.05;3.83;;;;;;;2.97;100.00;100759.13;4930929;29;20074;-67
2023/09/24 04:25:02;;;;;;;8.55;3.70;;;;;;;2.72;100.00;100714.97;4930329;29;20103;-67
2023/09/24 04:27:29;;;;;;;6.82;3.95;;;;;;;2.66;100.00;100701.22;4931731;28;20485;-67
2023/09/24 04:29:55;;;;;;;13.20;5.00;;;;;;;0.73;100.00;100392.06;4933036;29;20068;-72
2023/09/24 04:32:22;;;;;;;8.10;4.13;;;;;;;0.76;100.00;100380.44;4932787;29;20047;-63
2023/09/24 04:34:50;;;;;;;9.35;5.57;;;;;;;2.19;100.00;100596.03;4945199;29;20050;-63
2023/09/24 04:37:17;;;;;;;17.48;5.90;;;;;;;0.08;100.00;100257.53;4943883;29;20055;-63
2023/09/24 04:39:45;;;;;;;12.70;6.65;;;;;;;0.41;100.00;100325.63;4944616;29;20039;-62
2023/09/24 04:42:12;;;;;;;14.38;6.88;;;;;;;0.02;100.00;100250.06;4944216;29;20059;-62
2023/09/24 04:44:38;;;;;;;10.07;6.25;;;;;;;0.36;100.00;100314.53;4943973;29;20055;-62
2023/09/24 04:47:05;;;;;;;10.35;6.03;;;;;;;0.24;100.00;100296.91;4942924;29;20044;-61
2023/09/24 04:49:32;;;;;;;9.65;6.68;;;;;;;0.04;100.00;100258.69;4942658;29;20059;-63
2023/09/24 04:52:01;;;;;;;9.23;5.82;;;;;;;1.54;100.00;100491.25;4942961;29;20071;-64
2023/09/24 04:54:27;;;;;;;11.45;7.45;;;;;;;1.14;100.00;100440.34;4932914;29;20052;-66
2023/09/24 04:56:54;;;;;;;11.70;6.95;;;;;;;0.64;100.00;100355.75;4932755;29;20127;-63
2023/09/24 04:59:21;;;;;;;15.07;7.32;;;;;;;0.56;100.00;100358.03;4931142;29;20066;-65
2023/09/24 05:01:47;;;;;;;11.75;7.95;;;;;;;0.38;100.00;100325.00;4932361;29;20058;-63
2023/09/24 05:04:16;;;;;;;15.35;9.07;;;;;;;-0.73;100.00;100141.75;4931874;29;20055;-64
2023/09/24 05:06:43;;;;;;;18.27;10.35;;;;;;;0.55;100.00;100337.88;4932563;29;20048;-65
2023/09/24 05:09:10;;;;;;;12.60;7.82;;;;;;;0.45;100.00;100326.25;4931097;29;20052;-64
2023/09/24 05:11:36;;;;;;;12.18;7.82;;;;;;;0.53;100.00;100351.16;4930965;29;20402;-65
2023/09/24 05:14:03;;;;;;;13.48;7.13;;;;;;;1.54;100.00;100498.34;4930672;29;20399;-65
2023/09/24 05:16:31;;;;;;;11.63;7.07;;;;;;;2.31;100.00;100624.31;4931509;29;20452;-65
2023/09/24 05:19:02;;;;;;;14.45;8.50;;;;;;;2.80;100.00;100731.19;4930777;29;20099;-66
2023/09/24 05:21:31;;;;;;;11.45;8.07;;;;;;;1.71;100.00;100550.88;4931634;29;20167;-66
2023/09/24 05:23:58;;;;;;;9.65;7.20;;;;;;;2.39;100.00;100648.41;4931734;29;20051;-64
2023/09/24 05:26:25;;;;;;;14.25;7.70;;;;;;;3.00;100.00;100748.31;4931855;29;20411;-64
2023/09/24 05:28:51;;;;;;;12.82;7.32;;;;;;;2.04;100.00;100603.28;4932021;29;20047;-66
2023/09/24 05:31:18;;;;;;;9.23;6.63;;;;;;;3.17;100.00;100770.91;4931459;29;20095;-71
2023/09/24 05:33:45;;;;;;;12.85;8.00;;;;;;;3.06;100.00;100769.03;4931816;28;20058;-71
2023/09/24 05:36:11;;;;;;;11.95;8.13;;;;;;;2.54;100.00;100686.19;4931012;29;20059;-70
2023/09/24 05:38:38;;;;;;;13.35;8.43;;;;;;;1.41;100.00;100516.88;4932944;29;20047;-72
2023/09/24 05:41:07;;;;;;;16.25;9.30;;;;;;;1.23;100.00;100497.84;4935493;29;20047;-71
2023/09/24 05:43:35;;;;;;;10.30;6.13;;;;;;;1.29;100.00;100497.41;4935283;29;20103;-70
2023/09/24 05:46:02;;;;;;;14.13;8.55;;;;;;;1.98;100.00;100614.28;4934447;29;20039;-69
2023/09/24 05:48:29;;;;;;;15.52;8.63;;;;;;;2.16;100.00;100638.59;4933874;29;20054;-71
2023/09/24 05:50:56;;;;;;;13.70;9.05;;;;;;;1.87;100.00;100619.44;4936051;29;20047;-70
2023/09/24 05:53:22;;;;;;;13.63;8.80;;;;;;;2.04;100.00;100642.13;4935357;29;20051;-72
2023/09/24 05:55:53;;;;;;;14.20;8.80;;;;;;;2.05;100.00;100643.81;4934435;29;20044;-72
2023/09/24 05:58:22;;;;;;;14.38;8.02;;;;;;;2.37;100.00;100683.88;4934582;29;20044;-72
2023/09/24 06:00:50;;;;;;;12.90;7.90;;;;;;;2.39;100.00;100696.06;4935883;29;20048;-71
2023/09/24 06:03:17;;;;;;;12.15;7.63;;;;;;;2.42;100.00;100690.56;4934518;29;20099;-72
2023/09/24 06:05:45;;;;;;;13.20;7.45;;;;;;;2.65;100.00;100741.91;4934803;29;20051;-70
2023/09/24 06:08:12;;;;;;;14.82;7.75;;;;;;;2.12;100.00;100655.66;4934828;29;20520;-73
2023/09/24 06:10:43;;;;;;;13.40;7.50;;;;;;;2.26;100.00;100667.91;4934602;29;20047;-70
2023/09/24 06:13:15;;;;;;;11.43;7.25;;;;;;;2.45;100.00;100699.25;4933789;29;20044;-70
2023/09/24 06:15:43;;;;;;;13.35;7.97;;;;;;;2.96;100.00;100794.50;4933771;29;20052;-71
2023/09/24 06:18:11;;;;;;;9.30;7.30;;;;;;;3.08;100.00;100802.44;4934068;29;20055;-72
2023/09/24 06:20:39;;;;;;;10.90;7.10;;;;;;;4.03;100.00;100967.97;4933328;29;20052;-70
2023/09/24 06:23:08;;;;;;;10.63;7.20;;;;;;;3.96;100.00;100961.44;4936687;28;20075;-63
2023/09/24 06:25:36;;;;;;;12.90;6.82;;;;;;;4.37;100.00;101001.84;4945818;29;20047;-63
2023/09/24 06:28:04;;;;;;;8.68;6.18;;;;;;;5.08;100.00;101106.47;4947687;29;20052;-62
2023/09/24 06:30:31;;;;;;;13.05;5.85;;;;;;;6.53;100.00;101328.81;4946214;29;20044;-63
2023/09/24 06:32:57;;;;;;;14.77;6.35;;;;;;;6.43;100.00;101342.88;4947957;29;20047;-67
2023/09/24 06:35:24;;;;;;;11.95;6.82;;;;;;;5.79;100.00;101235.03;4947547;29;20126;-63
2023/09/24 06:37:51;;;;;;;15.63;6.53;;;;;;;5.71;100.00;101232.94;4938079;29;20083;-71
2023/09/24 06:40:18;;;;;;;11.95;5.88;;;;;;;5.79;100.00;101225.22;4933549;29;20131;-72
2023/09/24 06:42:45;;;;;;;9.98;5.95;;;;;;;6.83;100.00;101381.59;4933998;29;20472;-72
2023/09/24 06:45:12;;;;;;;9.20;5.70;;;;;;;7.70;100.00;101499.28;4933259;29;20060;-71
2023/09/24 06:47:39;;;;;;;10.30;5.05;;;;;;;7.61;100.00;101493.72;4934032;29;20055;-71
2023/09/24 06:50:06;;;;;;;11.45;5.82;;;;;;;7.80;100.00;101540.31;4933024;28;20052;-70
2023/09/24 06:52:33;;;;;;;11.95;5.90;;;;;;;7.78;100.00;101534.25;4934214;29;20047;-71
2023/09/24 06:54:59;;;;;;;9.98;4.75;;;;;;;7.68;100.00;101518.09;4934075;29;20047;-72
2023/09/24 06:57:26;;;;;;;13.98;5.47;;;;;;;7.84;100.00;101531.94;4934364;29;20054;-72
2023/09/24 06:59:53;;;;;;;7.22;5.18;;;;;;;8.18;100.00;101574.69;4932991;29;20074;-71
2023/09/24 07:02:20;;;;;;;10.20;5.18;;;;;;;8.07;100.00;101570.19;4935396;28;20135;-71
2023/09/24 07:04:48;;;;;;;10.30;4.95;;;;;;;8.28;100.00;101588.16;4932188;29;20055;-71
2023/09/24 07:07:15;;;;;;;9.75;6.43;;;;;;;8.59;100.00;101635.50;4933425;29;20047;-70
2023/09/24 07:09:41;;;;;;;7.50;5.10;;;;;;;8.63;100.00;101656.66;4932208;29;20055;-74
2023/09/24 07:12:08;;;;;;;9.10;4.32;;;;;;;8.78;100.00;101687.50;4933361;29;20497;-71
2023/09/24 07:14:34;;;;;;;7.38;4.07;;;;;;;8.78;100.00;101677.66;4933347;29;20055;-71
2023/09/24 07:17:02;;;;;;;13.43;4.97;;;;;;;9.32;100.00;101756.25;4932787;29;20051;-70
2023/09/24 07:19:28;;;;;;;9.07;4.40;;;;;;;9.38;100.00;101763.78;4944579;28;20070;-71
2023/09/24 07:21:55;;;;;;;9.80;4.57;;;;;;;9.78;100.00;101792.59;4951880;28;20500;-74
2023/09/24 07:24:23;;;;;;;9.48;4.07;;;;;;;9.64;100.00;101787.53;4950574;28;20102;-67
2023/09/24 07:26:51;;;;;;;9.98;4.30;;;;;;;9.77;100.00;101782.88;4952091;28;20054;-68
2023/09/24 07:29:17;;;;;;;12.52;4.88;;;;;;;9.84;100.00;101791.25;4950525;28;20514;-68
2023/09/24 07:31:44;;;;;;;5.75;3.22;;;;;;;9.89;100.00;101823.84;4952424;28;20047;-67
2023/09/24 07:34:10;;;;;;;9.52;3.67;;;;;;;10.01;100.00;101799.56;4951818;28;20051;-70
2023/09/24 07:36:38;;;;;;;6.22;3.45;;;;;;;10.62;100.00;101862.38;4949598;28;20047;-72
2023/09/24 07:39:28;;;;;;;7.00;3.50;;;;;;;11.06;100.00;101905.97;4951716;28;20138;-70
2023/09/24 07:41:54;;;;;;;8.88;3.05;;;;;;;10.78;100.00;101912.88;4951687;28;20082;-71
2023/09/24 07:44:22;;;;;;;8.52;3.05;;;;;;;10.76;100.00;101902.28;4954003;28;20419;-71
2023/09/24 07:46:54;;;;;;;7.30;3.08;;;;;;;11.11;100.00;101906.44;4944099;28;20047;-73
2023/09/24 07:49:43;;;;;;;5.22;2.90;;;;;;;11.26;100.00;101917.66;4954450;28;20230;-71
2023/09/24 07:52:25;;;;;;;6.82;2.67;;;;;;;11.61;100.00;101927.94;4956047;28;20047;-72
2023/09/24 07:54:53;;;;;;;6.47;2.70;;;;;;;11.80;100.00;101941.47;4946867;28;20062;-71
2023/09/24 07:58:03;;;;;;;10.23;2.83;;;;;;;11.89;100.00;101959.44;4924660;28;20464;-69
2023/09/24 08:00:30;;;;;;;10.00;4.47;;;;;;;11.91;100.00;101965.53;4927881;29;20505;-69
2023/09/24 08:02:57;;;;;;;18.35;8.85;;;;;;;12.13;100.00;101971.66;4929182;29;20492;-71
2023/09/24 08:05:24;;;;;;;8.70;3.40;;;;;;;11.84;100.00;101966.25;4929356;29;20130;-71
2023/09/24 08:07:53;;;;;;;9.70;5.70;;;;;;;11.93;100.00;101966.25;4926081;29;20087;-72
2023/09/24 08:10:20;;;;;;;8.77;3.30;;;;;;;12.17;100.00;101978.44;4928761;29;20103;-72
2023/09/24 08:12:47;;;;;;;4.63;2.70;;;;;;;11.93;100.00;101977.03;4930048;29;20493;-71
2023/09/24 08:15:13;;;;;;;3.85;2.80;;;;;;;11.61;100.00;101976.31;4928399;29;20052;-72
2023/09/24 08:17:40;;;;;;;7.95;2.92;;;;;;;12.05;100.00;101982.28;4930590;29;20428;-73
2023/09/24 08:20:07;;;;;;;7.95;2.58;;;;;;;12.73;100.00;101987.66;4912303;29;20048;-70
2023/09/24 08:22:34;;;;;;;10.57;2.58;;;;;;;13.30;100.00;102000.19;4910092;29;20040;-71
2023/09/24 08:25:02;;;;;;;7.30;2.28;;;;;;;13.45;100.00;101997.00;4910772;29;20175;-71
2023/09/24 08:27:28;;;;;;;2.88;1.60;;;;;;;13.56;100.00;102002.19;4910704;29;20052;-69
2023/09/24 08:29:55;;;;;;;5.28;2.88;;;;;;;13.73;100.00;102000.56;4932257;29;20071;-72
2023/09/24 08:32:23;;;;;;;5.35;2.10;;;;;;;14.38;100.00;102008.56;4931363;29;20048;-65
2023/09/24 08:34:50;;;;;;;7.47;1.90;;;;;;;15.05;100.00;102017.97;4931182;29;20468;-64
2023/09/24 08:37:17;;;;;;;6.07;1.77;;;;;;;15.63;100.00;102019.16;4931608;29;20650;-66
2023/09/24 08:39:44;;;;;;;6.68;2.30;;;;;;;15.97;100.00;102016.41;4932425;29;20067;-64
2023/09/24 08:42:14;;;;;;;5.10;2.03;;;;;;;15.06;100.00;102032.31;4932010;29;20107;-64
2023/09/24 08:44:41;;;;;;;7.00;2.50;;;;;;;14.84;100.00;102018.28;4932379;29;20063;-65
2023/09/24 08:47:09;;;;;;;5.72;1.92;;;;;;;15.01;100.00;102013.84;4932256;29;20048;-65
2023/09/24 08:49:37;;;;;;;4.45;1.73;;;;;;;15.60;100.00;102019.44;4931766;29;20075;-65
2023/09/24 08:52:07;;;;;;;7.00;1.90;;;;;;;15.84;100.00;102019.56;4930964;29;20039;-66
2023/09/24 08:54:34;;;;;;;7.13;1.88;;;;;;;16.32;100.00;102028.00;4931690;29;20052;-65
2023/09/24 08:57:01;;;;;;;5.75;1.70;;;;;;;16.81;100.00;102026.22;4931477;29;20616;-65
2023/09/24 08:59:28;;;;;;;10.43;1.90;;;;;;;17.59;97.85;102030.19;4932418;28;20050;-65
2023/09/24 09:01:54;;;;;;;6.60;2.08;;;;;;;18.47;87.66;102021.75;4932171;29;20131;-65
2023/09/24 09:04:21;;;;;;;6.53;1.83;;;;;;;19.34;79.83;102036.81;4929829;29;20054;-65
2023/09/24 09:06:48;;;;;;;2.75;1.30;;;;;;;20.12;68.70;102035.38;4930986;28;20141;-65
2023/09/24 09:09:27;;;;;;;5.28;1.50;;;;;;;20.29;67.91;102030.53;4932473;29;20047;-65
2023/09/24 09:11:53;;;;;;;3.45;1.27;;;;;;;20.56;62.92;102032.53;4932162;29;20048;-66
2023/09/24 09:14:35;;;;;;;7.40;1.85;;;;;;;20.86;63.06;102025.03;4930651;29;20404;-67
2023/09/24 09:17:03;;;;;;;7.32;1.80;;;;;;;21.89;60.24;102019.00;4931695;29;20047;-65
2023/09/24 09:19:52;;;;;;;6.03;1.50;;;;;;;21.57;56.75;102029.56;4931415;29;20050;-66
2023/09/24 09:22:21;;;;;;;7.40;1.30;;;;;;;22.18;55.49;102023.28;4930161;29;20130;-71
2023/09/24 09:25:09;;;;;;;5.05;1.33;;;;;;;23.19;51.61;102021.34;4933064;28;20050;-71
2023/09/24 09:27:39;;;;;;;3.83;1.20;;;;;;;21.81;55.76;102018.13;4932017;29;20464;-71
2023/09/24 09:30:17;;;;;;;6.07;1.58;;;;;;;21.89;55.18;102016.28;4929204;28;20043;-70
2023/09/24 09:32:46;;;;;;;4.68;1.30;;;;;;;22.98;51.57;102016.91;4931227;29;20043;-71
2023/09/24 09:35:15;;;;;;;3.20;1.20;;;;;;;23.30;49.13;102019.84;4930565;28;20523;-64
2023/09/24 09:37:43;;;;;;;6.55;1.50;;;;;;;23.78;48.15;102013.16;4931300;29;20423;-67
2023/09/24 09:40:11;;;;;;;2.42;1.20;;;;;;;24.39;44.84;102013.50;4930069;29;20070;-64
2023/09/24 09:42:38;;;;;;;3.40;1.38;;;;;;;22.43;48.14;102016.22;4930546;29;20040;-65
2023/09/24 09:45:09;;;;;;;5.00;1.20;;;;;;;24.10;46.84;102017.66;4931003;29;20107;-65
2023/09/24 09:47:58;;;;;;;3.67;1.50;;;;;;;23.54;47.58;102010.09;4932143;28;20140;-66
2023/09/24 09:50:26;;;;;;;6.03;1.58;;;;;;;24.80;44.56;102012.13;4936698;29;20048;-63
2023/09/24 09:52:54;;;;;;;6.55;1.55;;;;;;;24.09;46.07;102015.13;4941312;29;20048;-64
2023/09/24 09:55:22;;;;;;;4.63;1.52;;;;;;;21.35;52.64;102005.03;4940099;29;20051;-64
2023/09/24 09:57:49;;;;;;;4.60;1.30;;;;;;;23.46;48.65;102002.09;4941450;29;20057;-62
2023/09/24 10:00:17;;;;;;;3.17;1.60;;;;;;;23.78;47.02;102007.69;4940791;29;20076;-65
2023/09/24 10:02:47;;;;;;;7.07;1.60;;;;;;;22.22;49.56;102006.28;4933109;29;20488;-65
2023/09/24 10:05:15;;;;;;;4.47;1.50;;;;;;;23.38;49.62;102010.53;4931786;29;20078;-65
2023/09/24 10:07:41;;;;;;;4.65;1.30;;;;;;;23.65;46.90;102014.88;4929764;29;20055;-65
2023/09/24 10:10:30;;;;;;;5.57;1.65;;;;;;;24.10;45.15;102014.91;4929800;29;20099;-66
2023/09/24 10:13:02;;;;;;;4.72;1.20;;;;;;;24.94;43.68;102009.28;4931548;29;20040;-67
2023/09/24 10:15:30;;;;;;;4.88;1.40;;;;;;;24.67;43.31;102010.31;4929565;29;20460;-67
2023/09/24 10:18:09;;;;;;;6.30;3.15;;;;;;;25.14;42.21;102012.69;4930708;29;20094;-66
2023/09/24 10:20:48;;;;;;;7.53;1.38;;;;;;;24.44;40.90;102015.59;4949288;28;20040;-66
2023/09/24 10:23:32;;;;;;;2.97;1.15;;;;;;;20.73;46.78;102018.63;4949536;28;20508;-66
2023/09/24 10:26:01;;;;;;;7.68;1.23;;;;;;;19.44;51.86;102011.00;4951656;28;20043;-65
2023/09/24 10:28:47;;;;;;;6.47;1.65;;;;;;;18.76;58.10;102015.59;4953491;28;20051;-64
2023/09/24 10:31:14;;;;;;;4.10;1.00;;;;;;;20.68;53.13;102013.75;4953189;28;20074;-65
2023/09/24 10:33:58;;;;;;;6.10;1.58;;;;;;;21.45;50.87;102014.75;4954643;28;20125;-65
2023/09/24 10:36:33;;;;;;;4.78;1.48;;;;;;;22.30;48.72;102003.34;4954370;28;20134;-65
2023/09/24 10:39:16;;;;;;;4.63;1.63;;;;;;;22.75;47.50;102009.13;4954516;28;20110;-66
2023/09/24 10:42:10;;;;;;;9.13;1.70;;;;;;;22.09;49.06;102009.00;4953857;28;20055;-66
2023/09/24 10:44:39;;;;;;;6.15;1.30;;;;;;;21.18;51.45;102011.84;4953275;28;20125;-65
2023/09/24 10:47:27;;;;;;;5.72;1.60;;;;;;;19.70;55.58;102010.56;4952933;28;20047;-65
2023/09/24 10:50:04;;;;;;;4.70;1.08;;;;;;;18.57;60.25;102016.06;4957980;28;20054;-62
2023/09/24 10:52:55;;;;;;;8.98;1.65;;;;;;;19.76;58.53;102008.94;4965007;28;20047;-63
2023/09/24 10:55:28;;;;;;;5.65;1.63;;;;;;;19.99;57.96;102014.28;4964293;28;20047;-64
2023/09/24 10:57:56;;;;;;;5.45;1.40;;;;;;;18.94;60.09;102015.28;4964995;28;20051;-63
2023/09/24 11:00:25;;;;;;;4.22;1.15;;;;;;;20.17;58.08;102011.13;4965824;28;20074;-64
2023/09/24 11:03:01;;;;;;;3.58;1.55;;;;;;;20.68;54.25;102006.41;4964628;28;20051;-63
2023/09/24 11:05:33;;;;;;;4.40;1.38;;;;;;;20.10;54.39;102007.47;4965755;28;20039;-65
2023/09/24 11:07:59;;;;;;;;;;;;;;;19.39;55.67;102013.47;4965932;28;20051;-65
2023/09/24 11:10:26;;;;;;;4.07;1.40;;;;;;;20.25;53.62;102008.28;4964717;28;20030;-64
2023/09/24 11:12:55;;;;;;;5.22;1.33;;;;;;;19.24;54.24;102018.03;4966202;28;20062;-64
2023/09/24 11:15:24;;;;;;;6.55;1.63;;;;;;;18.90;56.02;102019.38;4963423;28;20051;-63
2023/09/24 11:17:52;;;;;;;5.15;1.60;;;;;;;18.65;58.63;102016.00;4961179;28;20054;-68
2023/09/24 11:20:22;;;;;;;4.55;1.45;;;;;;;18.81;57.73;102022.34;4914152;29;20063;-71
2023/09/24 11:22:56;;;;;;;6.32;1.30;;;;;;;18.92;57.20;102024.63;4913342;29;20059;-68
2023/09/24 11:25:24;;;;;;;5.30;1.30;;;;;;;19.21;54.32;102015.72;4912109;29;20048;-67
2023/09/24 11:27:52;;;;;;;5.25;1.42;;;;;;;20.08;50.33;102017.72;4912944;29;20135;-69
2023/09/24 11:30:22;;;;;;;3.00;1.00;;;;;;;19.93;48.47;102015.03;4913444;29;20413;-69
2023/09/24 11:32:52;;;;;;;2.35;0.90;;;;;;;19.60;48.34;102025.47;4914816;29;21600;-70
2023/09/24 11:35:25;;;;;;;2.78;1.10;;;;;;;20.11;47.65;102023.66;4913276;29;20108;-69